Largo, MD (20792)

8:46 AM EDT on September 23, 2014 (GMT -0400)
Croom | Change Station
CLOSE
Current Station
Personal Weather Station
Location: Upper Marlboro, MD
Elevation: 154 ft
Nearby Weather Stations

Elev 154 ft 38.78 °N, 76.78 °W | Updated 5 minutes ago

Partly Cloudy
Partly Cloudy
52.2 °F
Feels Like 52.2 °F
N
0.0
Wind Variable Wind from WNW

Today
High -- | Low -- °F
--% Chance of Precip.
Yesterday
High -- | Low -- °F
Precip. -- in
6:55 AM 7:02 PM
Waning Crescent, 1% visible
Pressure 30.34 in
Visibility 10.0 miles
Clouds Clear
Dew Point 48 °F
Humidity 87%
Rainfall 0.00 in
Snow Depth Not available.
UV 1 out of 12
Pollen 3.80 out of 12
Air Quality Not available.
Flu Activity Not available.
METAR KADW 231158Z AUTO 01006KT 10SM CLR 10/06 A3032 RMK AO2 SLP274 T01000059 10128 20072 52017

More Conditions Fewer Conditions

Pressure 30.34 in
Visibility 10.0 miles
Clouds Clear
Dew Point 48 °F
Humidity 87%
Rainfall 0.00 in
Snow Depth Not available.
UV 1 out of 12
Pollen 3.80 out of 12
Air Quality Not available.
Flu Activity Not available.
METAR KADW 231158Z AUTO 01006KT 10SM CLR 10/06 A3032 RMK AO2 SLP274 T01000059 10128 20072 52017

More Conditions Fewer Conditions

10-Day Weather Forecast

Almanac

Astronomy

Sep. 23, 2014 Rise Set
Actual Time 6:55 AM EDT 7:02 PM EDT
Civil Twilight 6:29 AM EDT 7:28 PM EDT
Nautical Twilight 5:57 AM EDT 7:59 PM EDT
Astronomical Twilight 5:26 AM EDT 8:31 PM EDT
Moon 6:17 AM EDT 6:40 PM EDT
Length of Visible Light 12h 59m
Length of Day
12h 06m
Tomorrow will be 2m 30s shorter.
Waning Crescent, 1% of the Moon is Illuminated
Today
Waning Crescent
Sep 24
New
Oct 1
First Quarter
Oct 8
Full
Oct 15
Last Quarter

Today's Extremes

State Highs State Lows

Community

WunderPhotos

Upload Photos

1,755,662 photos uploaded!

WunderBlogs® & News

Nearby

Snow Depth

Station Depth Elevation
No new snow has been reported.

Earthquake Activity

City Distance Mag. Time & Date
No recent earthquake activity has been reported nearby.
Minimum magnitude displayed is 2.5.

Coastal Water Temperatures

Place Temperature
Cambridge, MD 71.1 °F
Tolchester Beach, MD 69.1 °F
Baltimore, MD 73.9 °F

Nearby Weather Stations